sensor_id;sensor_type;location;lat;lon;timestamp;temperature;humidity
33655;DHT22;19997;51.274;22.506;2023-05-02T00:01:40;10.20;60.70
33655;DHT22;19997;51.274;22.506;2023-05-02T00:04:07;10.20;60.60
33655;DHT22;19997;51.274;22.506;2023-05-02T00:06:35;10.20;60.60
33655;DHT22;19997;51.274;22.506;2023-05-02T00:09:02;10.10;60.50
33655;DHT22;19997;51.274;22.506;2023-05-02T00:11:31;10.10;60.50
33655;DHT22;19997;51.274;22.506;2023-05-02T00:13:58;10.10;60.50
33655;DHT22;19997;51.274;22.506;2023-05-02T00:16:25;10.10;60.50
33655;DHT22;19997;51.274;22.506;2023-05-02T00:18:52;10.10;60.60
33655;DHT22;19997;51.274;22.506;2023-05-02T00:21:19;10.10;60.50
33655;DHT22;19997;51.274;22.506;2023-05-02T00:23:46;10.10;60.50
33655;DHT22;19997;51.274;22.506;2023-05-02T00:26:13;10.10;60.60
33655;DHT22;19997;51.274;22.506;2023-05-02T00:28:42;10.10;60.60
33655;DHT22;19997;51.274;22.506;2023-05-02T00:31:09;10.00;60.50
33655;DHT22;19997;51.274;22.506;2023-05-02T00:33:37;10.00;60.60
33655;DHT22;19997;51.274;22.506;2023-05-02T00:36:04;10.00;60.70
33655;DHT22;19997;51.274;22.506;2023-05-02T00:38:32;10.00;60.80
33655;DHT22;19997;51.274;22.506;2023-05-02T00:40:59;10.00;60.80
33655;DHT22;19997;51.274;22.506;2023-05-02T00:43:29;10.00;60.90
33655;DHT22;19997;51.274;22.506;2023-05-02T00:45:58;10.00;60.90
33655;DHT22;19997;51.274;22.506;2023-05-02T00:48:25;10.00;60.80
33655;DHT22;19997;51.274;22.506;2023-05-02T00:50:52;10.10;61.00
33655;DHT22;19997;51.274;22.506;2023-05-02T00:53:20;10.10;60.90
33655;DHT22;19997;51.274;22.506;2023-05-02T00:55:47;10.10;60.80
33655;DHT22;19997;51.274;22.506;2023-05-02T00:58:16;10.10;61.00
33655;DHT22;19997;51.274;22.506;2023-05-02T01:00:55;10.10;60.90
33655;DHT22;19997;51.274;22.506;2023-05-02T01:03:31;10.10;60.90
33655;DHT22;19997;51.274;22.506;2023-05-02T01:06:10;10.10;60.90
33655;DHT22;19997;51.274;22.506;2023-05-02T01:08:49;10.10;60.90
33655;DHT22;19997;51.274;22.506;2023-05-02T01:11:33;10.10;60.90
33655;DHT22;19997;51.274;22.506;2023-05-02T01:14:04;10.10;61.10
33655;DHT22;19997;51.274;22.506;2023-05-02T01:16:36;10.10;61.00
33655;DHT22;19997;51.274;22.506;2023-05-02T01:19:10;10.00;61.00
33655;DHT22;19997;51.274;22.506;2023-05-02T01:21:38;10.00;61.00
33655;DHT22;19997;51.274;22.506;2023-05-02T01:24:11;10.00;61.20
33655;DHT22;19997;51.274;22.506;2023-05-02T01:26:48;10.00;61.30
33655;DHT22;19997;51.274;22.506;2023-05-02T01:29:19;9.90;61.30
33655;DHT22;19997;51.274;22.506;2023-05-02T01:31:50;9.90;61.40
33655;DHT22;19997;51.274;22.506;2023-05-02T01:34:19;9.90;61.60
33655;DHT22;19997;51.274;22.506;2023-05-02T01:36:49;9.90;61.80
33655;DHT22;19997;51.274;22.506;2023-05-02T01:39:19;9.80;61.90
33655;DHT22;19997;51.274;22.506;2023-05-02T01:41:48;9.80;62.10
33655;DHT22;19997;51.274;22.506;2023-05-02T01:44:19;9.80;62.20
33655;DHT22;19997;51.274;22.506;2023-05-02T01:46:47;9.80;62.20
33655;DHT22;19997;51.274;22.506;2023-05-02T01:49:15;9.80;62.10
33655;DHT22;19997;51.274;22.506;2023-05-02T01:51:46;9.80;62.20
33655;DHT22;19997;51.274;22.506;2023-05-02T01:54:15;9.80;62.20
33655;DHT22;19997;51.274;22.506;2023-05-02T01:56:43;9.80;62.30
33655;DHT22;19997;51.274;22.506;2023-05-02T01:59:14;9.80;62.30
33655;DHT22;19997;51.274;22.506;2023-05-02T02:01:44;9.80;62.50
33655;DHT22;19997;51.274;22.506;2023-05-02T02:04:13;9.80;62.50
33655;DHT22;19997;51.274;22.506;2023-05-02T02:06:45;9.80;62.60
33655;DHT22;19997;51.274;22.506;2023-05-02T02:09:12;9.70;62.60
33655;DHT22;19997;51.274;22.506;2023-05-02T02:11:43;9.80;62.70
33655;DHT22;19997;51.274;22.506;2023-05-02T02:14:17;9.80;62.90
33655;DHT22;19997;51.274;22.506;2023-05-02T02:16:46;9.80;62.90
33655;DHT22;19997;51.274;22.506;2023-05-02T02:19:16;9.80;62.90
33655;DHT22;19997;51.274;22.506;2023-05-02T02:21:46;9.70;62.90
33655;DHT22;19997;51.274;22.506;2023-05-02T02:24:16;9.80;62.90
33655;DHT22;19997;51.274;22.506;2023-05-02T02:26:44;9.80;62.90
33655;DHT22;19997;51.274;22.506;2023-05-02T02:29:11;9.80;63.00
33655;DHT22;19997;51.274;22.506;2023-05-02T02:31:39;9.80;62.90
33655;DHT22;19997;51.274;22.506;2023-05-02T02:34:07;9.80;63.10
33655;DHT22;19997;51.274;22.506;2023-05-02T02:36:39;9.80;62.90
33655;DHT22;19997;51.274;22.506;2023-05-02T02:39:15;9.80;63.10
33655;DHT22;19997;51.274;22.506;2023-05-02T02:41:51;9.80;63.10
33655;DHT22;19997;51.274;22.506;2023-05-02T02:44:30;9.80;63.10
33655;DHT22;19997;51.274;22.506;2023-05-02T02:47:05;9.80;63.10
33655;DHT22;19997;51.274;22.506;2023-05-02T02:49:43;9.80;63.10
33655;DHT22;19997;51.274;22.506;2023-05-02T02:52:19;9.80;63.10
33655;DHT22;19997;51.274;22.506;2023-05-02T02:54:51;9.80;63.50
33655;DHT22;19997;51.274;22.506;2023-05-02T02:57:27;9.80;63.50
33655;DHT22;19997;51.274;22.506;2023-05-02T02:59:58;9.80;63.70
33655;DHT22;19997;51.274;22.506;2023-05-02T03:02:29;9.80;63.80
33655;DHT22;19997;51.274;22.506;2023-05-02T03:05:01;9.80;63.90
33655;DHT22;19997;51.274;22.506;2023-05-02T03:07:29;9.80;64.20
33655;DHT22;19997;51.274;22.506;2023-05-02T03:10:02;9.80;64.10
33655;DHT22;19997;51.274;22.506;2023-05-02T03:12:30;9.80;64.40
33655;DHT22;19997;51.274;22.506;2023-05-02T03:15:04;9.80;64.40
33655;DHT22;19997;51.274;22.506;2023-05-02T03:17:35;9.80;64.50
33655;DHT22;19997;51.274;22.506;2023-05-02T03:20:04;9.80;64.50
33655;DHT22;19997;51.274;22.506;2023-05-02T03:22:31;9.90;64.40
33655;DHT22;19997;51.274;22.506;2023-05-02T03:24:59;9.90;64.30
33655;DHT22;19997;51.274;22.506;2023-05-02T03:27:27;9.90;64.20
33655;DHT22;19997;51.274;22.506;2023-05-02T03:29:54;10.00;65.20
33655;DHT22;19997;51.274;22.506;2023-05-02T03:32:22;10.00;64.30
33655;DHT22;19997;51.274;22.506;2023-05-02T03:34:49;10.00;64.30
33655;DHT22;19997;51.274;22.506;2023-05-02T03:37:19;10.10;64.20
33655;DHT22;19997;51.274;22.506;2023-05-02T03:39:46;10.10;64.10
33655;DHT22;19997;51.274;22.506;2023-05-02T03:42:13;10.20;64.10
33655;DHT22;19997;51.274;22.506;2023-05-02T03:44:40;10.20;64.20
33655;DHT22;19997;51.274;22.506;2023-05-02T03:47:07;10.30;64.20
33655;DHT22;19997;51.274;22.506;2023-05-02T03:49:39;10.30;64.10
33655;DHT22;19997;51.274;22.506;2023-05-02T03:52:07;10.40;64.00
33655;DHT22;19997;51.274;22.506;2023-05-02T03:54:36;10.40;63.90
33655;DHT22;19997;51.274;22.506;2023-05-02T03:57:04;10.50;64.00
33655;DHT22;19997;51.274;22.506;2023-05-02T03:59:32;10.50;64.00
33655;DHT22;19997;51.274;22.506;2023-05-02T04:02:06;10.50;63.90
33655;DHT22;19997;51.274;22.506;2023-05-02T04:04:39;10.60;64.00
33655;DHT22;19997;51.274;22.506;2023-05-02T04:07:09;10.70;63.80
33655;DHT22;19997;51.274;22.506;2023-05-02T04:09:45;10.70;63.90
33655;DHT22;19997;51.274;22.506;2023-05-02T04:12:32;10.80;63.90
33655;DHT22;19997;51.274;22.506;2023-05-02T04:15:00;10.90;63.80
33655;DHT22;19997;51.274;22.506;2023-05-02T04:17:28;11.00;63.70
33655;DHT22;19997;51.274;22.506;2023-05-02T04:19:56;11.10;63.60
33655;DHT22;19997;51.274;22.506;2023-05-02T04:22:25;11.20;63.60
33655;DHT22;19997;51.274;22.506;2023-05-02T04:24:58;11.20;64.10
33655;DHT22;19997;51.274;22.506;2023-05-02T04:27:27;11.30;63.20
33655;DHT22;19997;51.274;22.506;2023-05-02T04:29:54;11.40;63.10
33655;DHT22;19997;51.274;22.506;2023-05-02T04:32:23;11.50;63.00
33655;DHT22;19997;51.274;22.506;2023-05-02T04:34:50;11.60;63.00
33655;DHT22;19997;51.274;22.506;2023-05-02T04:37:17;11.60;62.90
33655;DHT22;19997;51.274;22.506;2023-05-02T04:39:45;11.70;62.80
33655;DHT22;19997;51.274;22.506;2023-05-02T04:42:20;11.70;62.70
33655;DHT22;19997;51.274;22.506;2023-05-02T04:45:13;11.80;62.70
33655;DHT22;19997;51.274;22.506;2023-05-02T04:47:42;11.80;62.60
33655;DHT22;19997;51.274;22.506;2023-05-02T04:50:09;11.90;62.80
33655;DHT22;19997;51.274;22.506;2023-05-02T04:52:37;11.90;62.80
33655;DHT22;19997;51.274;22.506;2023-05-02T04:55:05;11.90;62.70
33655;DHT22;19997;51.274;22.506;2023-05-02T04:57:33;11.90;62.80
33655;DHT22;19997;51.274;22.506;2023-05-02T05:00:02;11.90;62.80
33655;DHT22;19997;51.274;22.506;2023-05-02T05:02:30;11.90;62.80
33655;DHT22;19997;51.274;22.506;2023-05-02T05:04:59;11.90;62.80
33655;DHT22;19997;51.274;22.506;2023-05-02T05:07:26;12.00;62.90
33655;DHT22;19997;51.274;22.506;2023-05-02T05:09:54;12.00;63.20
33655;DHT22;19997;51.274;22.506;2023-05-02T05:12:23;12.00;63.20
33655;DHT22;19997;51.274;22.506;2023-05-02T05:14:52;12.10;63.50
33655;DHT22;19997;51.274;22.506;2023-05-02T05:17:21;12.10;63.20
33655;DHT22;19997;51.274;22.506;2023-05-02T05:19:48;12.20;63.20
33655;DHT22;19997;51.274;22.506;2023-05-02T05:22:15;12.40;63.30
33655;DHT22;19997;51.274;22.506;2023-05-02T05:24:50;12.40;63.20
33655;DHT22;19997;51.274;22.506;2023-05-02T05:27:18;12.50;63.00
33655;DHT22;19997;51.274;22.506;2023-05-02T05:29:45;12.60;63.00
33655;DHT22;19997;51.274;22.506;2023-05-02T05:32:13;12.70;62.90
33655;DHT22;19997;51.274;22.506;2023-05-02T05:34:41;12.80;62.70
33655;DHT22;19997;51.274;22.506;2023-05-02T05:37:08;12.90;62.50
33655;DHT22;19997;51.274;22.506;2023-05-02T05:39:36;13.00;62.20
33655;DHT22;19997;51.274;22.506;2023-05-02T05:42:04;13.10;62.10
33655;DHT22;19997;51.274;22.506;2023-05-02T05:44:35;13.30;62.00
33655;DHT22;19997;51.274;22.506;2023-05-02T05:47:02;13.30;61.70
33655;DHT22;19997;51.274;22.506;2023-05-02T05:49:31;13.40;62.00
33655;DHT22;19997;51.274;22.506;2023-05-02T05:52:01;13.50;61.70
33655;DHT22;19997;51.274;22.506;2023-05-02T05:54:29;13.60;61.30
33655;DHT22;19997;51.274;22.506;2023-05-02T05:56:57;13.70;61.30
33655;DHT22;19997;51.274;22.506;2023-05-02T05:59:26;13.80;61.20
33655;DHT22;19997;51.274;22.506;2023-05-02T06:01:53;13.90;60.60
33655;DHT22;19997;51.274;22.506;2023-05-02T06:04:22;14.00;60.70
33655;DHT22;19997;51.274;22.506;2023-05-02T06:06:52;14.00;60.60
33655;DHT22;19997;51.274;22.506;2023-05-02T06:09:19;14.10;60.50
33655;DHT22;19997;51.274;22.506;2023-05-02T06:11:47;14.20;60.60
33655;DHT22;19997;51.274;22.506;2023-05-02T06:14:14;14.30;60.50
33655;DHT22;19997;51.274;22.506;2023-05-02T06:16:43;14.40;60.40
33655;DHT22;19997;51.274;22.506;2023-05-02T06:19:11;14.60;60.20
33655;DHT22;19997;51.274;22.506;2023-05-02T06:21:39;14.70;59.30
33655;DHT22;19997;51.274;22.506;2023-05-02T06:24:08;14.80;58.90
33655;DHT22;19997;51.274;22.506;2023-05-02T06:26:35;14.80;58.90
33655;DHT22;19997;51.274;22.506;2023-05-02T06:29:02;14.90;58.80
33655;DHT22;19997;51.274;22.506;2023-05-02T06:31:30;15.00;58.80
33655;DHT22;19997;51.274;22.506;2023-05-02T06:33:57;15.10;58.70
33655;DHT22;19997;51.274;22.506;2023-05-02T06:36:24;15.20;58.60
33655;DHT22;19997;51.274;22.506;2023-05-02T06:38:52;15.30;58.20
33655;DHT22;19997;51.274;22.506;2023-05-02T06:41:20;15.40;58.40
33655;DHT22;19997;51.274;22.506;2023-05-02T06:43:48;15.50;58.30
33655;DHT22;19997;51.274;22.506;2023-05-02T06:46:15;15.70;58.00
33655;DHT22;19997;51.274;22.506;2023-05-02T06:48:43;15.80;57.80
33655;DHT22;19997;51.274;22.506;2023-05-02T06:51:12;16.00;57.50
33655;DHT22;19997;51.274;22.506;2023-05-02T06:53:39;16.10;57.50
33655;DHT22;19997;51.274;22.506;2023-05-02T06:56:07;16.20;57.30
33655;DHT22;19997;51.274;22.506;2023-05-02T06:58:35;16.40;57.30
33655;DHT22;19997;51.274;22.506;2023-05-02T07:01:03;16.60;57.20
33655;DHT22;19997;51.274;22.506;2023-05-02T07:03:30;16.70;56.80
33655;DHT22;19997;51.274;22.506;2023-05-02T07:05:57;16.80;56.50
33655;DHT22;19997;51.274;22.506;2023-05-02T07:08:24;17.00;56.30
33655;DHT22;19997;51.274;22.506;2023-05-02T07:10:51;17.10;56.10
33655;DHT22;19997;51.274;22.506;2023-05-02T07:13:18;17.30;55.90
33655;DHT22;19997;51.274;22.506;2023-05-02T07:15:47;17.40;55.50
33655;DHT22;19997;51.274;22.506;2023-05-02T07:18:14;17.50;55.30
33655;DHT22;19997;51.274;22.506;2023-05-02T07:20:41;17.60;55.10
33655;DHT22;19997;51.274;22.506;2023-05-02T07:23:08;17.70;55.10
33655;DHT22;19997;51.274;22.506;2023-05-02T07:25:35;17.80;54.70
33655;DHT22;19997;51.274;22.506;2023-05-02T07:28:02;17.90;54.40
33655;DHT22;19997;51.274;22.506;2023-05-02T07:30:30;17.90;54.60
33655;DHT22;19997;51.274;22.506;2023-05-02T07:32:58;18.00;54.70
33655;DHT22;19997;51.274;22.506;2023-05-02T07:35:25;18.20;54.80
33655;DHT22;19997;51.274;22.506;2023-05-02T07:37:52;18.30;54.50
33655;DHT22;19997;51.274;22.506;2023-05-02T07:40:19;18.40;54.60
33655;DHT22;19997;51.274;22.506;2023-05-02T07:42:46;18.60;54.60
33655;DHT22;19997;51.274;22.506;2023-05-02T07:45:15;18.80;54.10
33655;DHT22;19997;51.274;22.506;2023-05-02T07:47:42;18.80;53.60
33655;DHT22;19997;51.274;22.506;2023-05-02T07:50:11;18.90;53.20
33655;DHT22;19997;51.274;22.506;2023-05-02T07:52:38;19.00;53.10
33655;DHT22;19997;51.274;22.506;2023-05-02T07:55:06;19.10;53.10
33655;DHT22;19997;51.274;22.506;2023-05-02T07:57:33;19.20;53.20
33655;DHT22;19997;51.274;22.506;2023-05-02T08:00:00;19.40;52.90
33655;DHT22;19997;51.274;22.506;2023-05-02T08:02:39;19.50;52.70
33655;DHT22;19997;51.274;22.506;2023-05-02T08:05:07;19.60;52.70
33655;DHT22;19997;51.274;22.506;2023-05-02T08:07:35;19.80;52.50
33655;DHT22;19997;51.274;22.506;2023-05-02T08:10:02;19.90;52.10
33655;DHT22;19997;51.274;22.506;2023-05-02T08:12:30;20.00;51.70
33655;DHT22;19997;51.274;22.506;2023-05-02T08:14:57;20.10;51.40
33655;DHT22;19997;51.274;22.506;2023-05-02T08:17:24;20.30;51.20
33655;DHT22;19997;51.274;22.506;2023-05-02T08:19:53;20.30;50.90
33655;DHT22;19997;51.274;22.506;2023-05-02T08:22:20;20.40;50.80
33655;DHT22;19997;51.274;22.506;2023-05-02T08:24:49;20.50;51.00
33655;DHT22;19997;51.274;22.506;2023-05-02T08:27:16;20.50;51.10
33655;DHT22;19997;51.274;22.506;2023-05-02T08:29:43;20.60;51.10
33655;DHT22;19997;51.274;22.506;2023-05-02T08:32:10;20.70;51.40
33655;DHT22;19997;51.274;22.506;2023-05-02T08:34:37;20.80;51.50
33655;DHT22;19997;51.274;22.506;2023-05-02T08:37:07;20.90;51.40
33655;DHT22;19997;51.274;22.506;2023-05-02T08:39:34;21.00;51.10
33655;DHT22;19997;51.274;22.506;2023-05-02T08:42:05;21.00;50.40
33655;DHT22;19997;51.274;22.506;2023-05-02T08:44:32;21.10;50.30
33655;DHT22;19997;51.274;22.506;2023-05-02T08:47:02;21.10;49.70
33655;DHT22;19997;51.274;22.506;2023-05-02T08:49:34;21.10;49.80
33655;DHT22;19997;51.274;22.506;2023-05-02T08:52:02;21.10;49.60
33655;DHT22;19997;51.274;22.506;2023-05-02T08:54:31;21.20;49.10
33655;DHT22;19997;51.274;22.506;2023-05-02T08:56:59;21.20;48.50
33655;DHT22;19997;51.274;22.506;2023-05-02T08:59:32;21.20;48.60
33655;DHT22;19997;51.274;22.506;2023-05-02T09:02:05;21.20;48.50
33655;DHT22;19997;51.274;22.506;2023-05-02T09:04:40;21.30;48.70
33655;DHT22;19997;51.274;22.506;2023-05-02T09:07:08;21.40;48.80
33655;DHT22;19997;51.274;22.506;2023-05-02T09:09:35;21.60;48.10
33655;DHT22;19997;51.274;22.506;2023-05-02T09:12:03;21.60;47.30
33655;DHT22;19997;51.274;22.506;2023-05-02T09:14:31;21.60;47.50
33655;DHT22;19997;51.274;22.506;2023-05-02T09:16:59;21.70;47.50
33655;DHT22;19997;51.274;22.506;2023-05-02T09:19:26;21.80;46.10
33655;DHT22;19997;51.274;22.506;2023-05-02T09:21:59;21.90;45.20
33655;DHT22;19997;51.274;22.506;2023-05-02T09:24:27;21.90;45.10
33655;DHT22;19997;51.274;22.506;2023-05-02T09:26:57;22.00;44.80
33655;DHT22;19997;51.274;22.506;2023-05-02T09:29:25;22.00;45.00
33655;DHT22;19997;51.274;22.506;2023-05-02T09:32:08;22.10;45.20
33655;DHT22;19997;51.274;22.506;2023-05-02T09:34:35;22.10;45.10
33655;DHT22;19997;51.274;22.506;2023-05-02T09:37:04;22.20;46.00
33655;DHT22;19997;51.274;22.506;2023-05-02T09:39:31;22.30;45.80
33655;DHT22;19997;51.274;22.506;2023-05-02T09:41:58;22.40;45.60
33655;DHT22;19997;51.274;22.506;2023-05-02T09:44:34;22.50;45.80
33655;DHT22;19997;51.274;22.506;2023-05-02T09:47:01;22.50;45.80
33655;DHT22;19997;51.274;22.506;2023-05-02T09:49:41;22.60;45.90
33655;DHT22;19997;51.274;22.506;2023-05-02T09:52:10;22.70;45.90
33655;DHT22;19997;51.274;22.506;2023-05-02T09:54:37;22.80;45.90
33655;DHT22;19997;51.274;22.506;2023-05-02T09:57:04;22.90;45.70
33655;DHT22;19997;51.274;22.506;2023-05-02T09:59:32;23.00;45.60
33655;DHT22;19997;51.274;22.506;2023-05-02T10:02:00;23.00;45.50
33655;DHT22;19997;51.274;22.506;2023-05-02T10:04:30;23.00;45.60
33655;DHT22;19997;51.274;22.506;2023-05-02T10:06:59;23.20;46.10
33655;DHT22;19997;51.274;22.506;2023-05-02T10:09:29;23.30;45.50
33655;DHT22;19997;51.274;22.506;2023-05-02T10:12:00;23.50;45.00
33655;DHT22;19997;51.274;22.506;2023-05-02T10:14:31;23.50;44.90
33655;DHT22;19997;51.274;22.506;2023-05-02T10:17:04;23.60;45.30
33655;DHT22;19997;51.274;22.506;2023-05-02T10:19:39;23.70;45.20
33655;DHT22;19997;51.274;22.506;2023-05-02T10:22:09;23.80;45.20
33655;DHT22;19997;51.274;22.506;2023-05-02T10:24:39;23.80;44.60
33655;DHT22;19997;51.274;22.506;2023-05-02T10:27:07;23.70;44.30
33655;DHT22;19997;51.274;22.506;2023-05-02T10:29:35;23.70;44.80
33655;DHT22;19997;51.274;22.506;2023-05-02T10:32:04;23.60;44.90
33655;DHT22;19997;51.274;22.506;2023-05-02T10:34:32;23.60;44.80
33655;DHT22;19997;51.274;22.506;2023-05-02T10:37:00;23.60;45.00
33655;DHT22;19997;51.274;22.506;2023-05-02T10:39:29;23.70;45.50
33655;DHT22;19997;51.274;22.506;2023-05-02T10:41:58;23.80;45.40
33655;DHT22;19997;51.274;22.506;2023-05-02T10:44:33;24.00;45.30
33655;DHT22;19997;51.274;22.506;2023-05-02T10:47:00;24.20;45.00
33655;DHT22;19997;51.274;22.506;2023-05-02T10:49:30;24.20;44.90
33655;DHT22;19997;51.274;22.506;2023-05-02T10:51:57;24.10;44.80
33655;DHT22;19997;51.274;22.506;2023-05-02T10:54:25;24.10;44.90
33655;DHT22;19997;51.274;22.506;2023-05-02T10:57:16;24.20;45.00
33655;DHT22;19997;51.274;22.506;2023-05-02T10:59:43;24.10;44.40
33655;DHT22;19997;51.274;22.506;2023-05-02T11:02:48;24.00;44.00
33655;DHT22;19997;51.274;22.506;2023-05-02T11:05:16;23.80;44.70
33655;DHT22;19997;51.274;22.506;2023-05-02T11:07:43;23.80;44.90
33655;DHT22;19997;51.274;22.506;2023-05-02T11:10:24;23.80;45.60
33655;DHT22;19997;51.274;22.506;2023-05-02T11:12:54;23.80;44.90
33655;DHT22;19997;51.274;22.506;2023-05-02T11:15:53;23.80;44.30
33655;DHT22;19997;51.274;22.506;2023-05-02T11:18:20;23.80;45.00
33655;DHT22;19997;51.274;22.506;2023-05-02T11:20:48;24.00;45.20
33655;DHT22;19997;51.274;22.506;2023-05-02T11:23:24;24.10;45.00
33655;DHT22;19997;51.274;22.506;2023-05-02T11:25:54;24.30;44.40
33655;DHT22;19997;51.274;22.506;2023-05-02T11:28:42;24.40;43.90
33655;DHT22;19997;51.274;22.506;2023-05-02T11:34:41;24.60;43.70
33655;DHT22;19997;51.274;22.506;2023-05-02T11:37:15;24.80;43.30
33655;DHT22;19997;51.274;22.506;2023-05-02T11:39:48;24.80;43.50
33655;DHT22;19997;51.274;22.506;2023-05-02T11:42:27;24.70;43.20
33655;DHT22;19997;51.274;22.506;2023-05-02T11:44:57;24.60;43.50
33655;DHT22;19997;51.274;22.506;2023-05-02T11:47:25;24.50;43.90
33655;DHT22;19997;51.274;22.506;2023-05-02T11:49:54;24.40;43.20
33655;DHT22;19997;51.274;22.506;2023-05-02T11:52:22;24.30;43.60
33655;DHT22;19997;51.274;22.506;2023-05-02T11:54:52;24.30;43.70
33655;DHT22;19997;51.274;22.506;2023-05-02T11:57:19;24.20;43.60
33655;DHT22;19997;51.274;22.506;2023-05-02T11:59:51;24.20;43.40
33655;DHT22;19997;51.274;22.506;2023-05-02T12:02:21;24.10;43.40
33655;DHT22;19997;51.274;22.506;2023-05-02T12:05:01;24.10;43.70
33655;DHT22;19997;51.274;22.506;2023-05-02T12:07:34;24.10;44.10
33655;DHT22;19997;51.274;22.506;2023-05-02T12:10:02;24.10;44.20
33655;DHT22;19997;51.274;22.506;2023-05-02T12:12:30;24.20;44.40
33655;DHT22;19997;51.274;22.506;2023-05-02T12:15:00;24.20;44.30
33655;DHT22;19997;51.274;22.506;2023-05-02T12:17:30;24.20;44.50
33655;DHT22;19997;51.274;22.506;2023-05-02T12:19:58;24.10;44.30
33655;DHT22;19997;51.274;22.506;2023-05-02T12:22:25;24.00;45.10
33655;DHT22;19997;51.274;22.506;2023-05-02T12:24:52;24.00;45.80
33655;DHT22;19997;51.274;22.506;2023-05-02T12:27:19;24.10;46.20
33655;DHT22;19997;51.274;22.506;2023-05-02T12:29:47;24.20;44.90
33655;DHT22;19997;51.274;22.506;2023-05-02T12:32:26;24.20;44.90
33655;DHT22;19997;51.274;22.506;2023-05-02T12:34:55;24.10;44.50
33655;DHT22;19997;51.274;22.506;2023-05-02T12:37:22;24.00;44.90
33655;DHT22;19997;51.274;22.506;2023-05-02T12:39:50;23.80;45.20
33655;DHT22;19997;51.274;22.506;2023-05-02T12:42:19;23.70;45.70
33655;DHT22;19997;51.274;22.506;2023-05-02T12:44:47;23.70;45.90
33655;DHT22;19997;51.274;22.506;2023-05-02T12:47:17;23.60;45.80
33655;DHT22;19997;51.274;22.506;2023-05-02T12:49:48;23.50;45.90
33655;DHT22;19997;51.274;22.506;2023-05-02T12:52:17;23.40;46.10
33655;DHT22;19997;51.274;22.506;2023-05-02T12:54:44;23.40;46.30
33655;DHT22;19997;51.274;22.506;2023-05-02T12:57:21;23.40;46.80
33655;DHT22;19997;51.274;22.506;2023-05-02T12:59:51;23.40;46.20
33655;DHT22;19997;51.274;22.506;2023-05-02T13:02:20;23.50;46.20
33655;DHT22;19997;51.274;22.506;2023-05-02T13:04:48;23.60;46.10
33655;DHT22;19997;51.274;22.506;2023-05-02T13:07:16;23.70;46.00
33655;DHT22;19997;51.274;22.506;2023-05-02T13:09:44;23.80;45.60
33655;DHT22;19997;51.274;22.506;2023-05-02T13:12:11;23.80;45.60
33655;DHT22;19997;51.274;22.506;2023-05-02T13:14:38;23.80;45.70
33655;DHT22;19997;51.274;22.506;2023-05-02T13:17:05;23.90;45.50
33655;DHT22;19997;51.274;22.506;2023-05-02T13:19:33;24.00;45.70
33655;DHT22;19997;51.274;22.506;2023-05-02T13:22:00;24.10;45.90
33655;DHT22;19997;51.274;22.506;2023-05-02T13:24:29;24.40;44.80
33655;DHT22;19997;51.274;22.506;2023-05-02T13:26:56;24.40;44.20
33655;DHT22;19997;51.274;22.506;2023-05-02T13:29:23;24.50;44.50
33655;DHT22;19997;51.274;22.506;2023-05-02T13:31:50;24.60;44.20
33655;DHT22;19997;51.274;22.506;2023-05-02T13:34:17;24.70;43.80
33655;DHT22;19997;51.274;22.506;2023-05-02T13:36:44;24.80;43.90
33655;DHT22;19997;51.274;22.506;2023-05-02T13:39:11;24.80;43.90
33655;DHT22;19997;51.274;22.506;2023-05-02T13:41:40;25.00;44.10
33655;DHT22;19997;51.274;22.506;2023-05-02T13:44:07;25.20;44.20
33655;DHT22;19997;51.274;22.506;2023-05-02T13:46:34;25.40;42.90
33655;DHT22;19997;51.274;22.506;2023-05-02T13:49:02;25.50;42.70
33655;DHT22;19997;51.274;22.506;2023-05-02T13:51:30;25.40;42.10
33655;DHT22;19997;51.274;22.506;2023-05-02T13:53:57;25.40;42.40
33655;DHT22;19997;51.274;22.506;2023-05-02T13:56:24;25.40;42.30
33655;DHT22;19997;51.274;22.506;2023-05-02T13:58:53;25.50;41.90
33655;DHT22;19997;51.274;22.506;2023-05-02T14:01:20;25.40;42.30
33655;DHT22;19997;51.274;22.506;2023-05-02T14:03:47;25.40;42.00
33655;DHT22;19997;51.274;22.506;2023-05-02T14:06:14;25.40;41.60
33655;DHT22;19997;51.274;22.506;2023-05-02T14:08:42;25.40;41.30
33655;DHT22;19997;51.274;22.506;2023-05-02T14:11:09;25.40;41.50
33655;DHT22;19997;51.274;22.506;2023-05-02T14:13:37;25.50;40.80
33655;DHT22;19997;51.274;22.506;2023-05-02T14:16:05;25.60;40.70
33655;DHT22;19997;51.274;22.506;2023-05-02T14:18:32;25.70;40.70
33655;DHT22;19997;51.274;22.506;2023-05-02T14:20:59;25.90;40.80
33655;DHT22;19997;51.274;22.506;2023-05-02T14:23:27;26.00;40.50
33655;DHT22;19997;51.274;22.506;2023-05-02T14:25:55;26.10;40.80
33655;DHT22;19997;51.274;22.506;2023-05-02T14:28:22;26.00;40.90
33655;DHT22;19997;51.274;22.506;2023-05-02T14:30:49;26.00;40.60
33655;DHT22;19997;51.274;22.506;2023-05-02T14:33:17;26.00;40.90
33655;DHT22;19997;51.274;22.506;2023-05-02T14:35:44;25.80;41.20
33655;DHT22;19997;51.274;22.506;2023-05-02T14:38:11;25.60;41.60
33655;DHT22;19997;51.274;22.506;2023-05-02T14:40:39;25.30;41.90
33655;DHT22;19997;51.274;22.506;2023-05-02T14:43:06;25.10;42.30
33655;DHT22;19997;51.274;22.506;2023-05-02T14:45:36;24.90;42.90
33655;DHT22;19997;51.274;22.506;2023-05-02T14:48:03;24.80;43.70
33655;DHT22;19997;51.274;22.506;2023-05-02T14:50:32;24.60;44.10
33655;DHT22;19997;51.274;22.506;2023-05-02T14:52:59;24.50;44.60
33655;DHT22;19997;51.274;22.506;2023-05-02T14:55:26;24.40;45.10
33655;DHT22;19997;51.274;22.506;2023-05-02T14:57:54;24.30;45.60
33655;DHT22;19997;51.274;22.506;2023-05-02T15:00:21;24.10;46.10
33655;DHT22;19997;51.274;22.506;2023-05-02T15:02:48;24.00;46.40
33655;DHT22;19997;51.274;22.506;2023-05-02T15:05:15;24.30;46.50
33655;DHT22;19997;51.274;22.506;2023-05-02T15:07:44;24.90;46.00
33655;DHT22;19997;51.274;22.506;2023-05-02T15:10:11;25.40;45.30
33655;DHT22;19997;51.274;22.506;2023-05-02T15:12:38;25.90;44.80
33655;DHT22;19997;51.274;22.506;2023-05-02T15:15:06;26.00;44.80
33655;DHT22;19997;51.274;22.506;2023-05-02T15:17:33;26.00;45.10
33655;DHT22;19997;51.274;22.506;2023-05-02T15:20:00;25.80;45.40
33655;DHT22;19997;51.274;22.506;2023-05-02T15:22:28;25.80;45.50
33655;DHT22;19997;51.274;22.506;2023-05-02T15:24:57;25.70;45.60
33655;DHT22;19997;51.274;22.506;2023-05-02T15:27:27;25.70;45.90
33655;DHT22;19997;51.274;22.506;2023-05-02T15:30:00;25.90;45.80
33655;DHT22;19997;51.274;22.506;2023-05-02T15:32:29;26.00;45.50
33655;DHT22;19997;51.274;22.506;2023-05-02T15:34:57;26.00;45.40